Terminal Aerodrome Forecast
Issued by NWS

Home | Current Version | Previous Version | Text Only | Print | Product List | Glossary On
Versions: 1 2 3 4 5 6 7 8 9 10 11 12 13 14 15 16 17 18 19 20
000
FTUS42 TJSJ 230500
TAFJSJ
TAF
TJSJ 230533Z 2306/2406 10003KT P6SM VCSH SCT022 BKN060
      TEMPO 2306/2310 VRB12KT 5SM SHRA BKN022
     FM231030 09009KT P6SM VCTS FEW025CB BKN040
     FM231800 08012KT P6SM VCSH SCT025 SCT040 BKN100
     FM232300 12004KT P6SM SCT030 SCT060 SCT120=

USA.gov is the U.S. government's official web portal to all federal, state and local government web resources and services.